Portsmouth, Ohio
Current Conditions -  °F | °C
As of 12:55 AM on Thursday 18 Dec 2014 (Local Time) from KDWU Reporting Station
Overcast Overcast  
Wind Chill: 26°   Ceiling: 2800
Heat Index: 32°   Visibility: 10mi
Dew Point: 21°   Wind: 6mph
Humidity: 64%   Direction: 340°NNW
Pressure: 30.24"   Gusts: NA
Location:  38.74°N, 82.99°W
Report Text: KDWU 180555Z AUTO 34005KT 10SM OVC028 00/M06 A3024 RMK AO1 10020 20000 52003
Loading
Personal Weather Stations






























Interactive Weather Map New forecast layout! Learn more

10-Day Weather Forecast

Advertisements
Track Severe Weather on mobile